Time;durP1;ratioP1;P1;durP2;ratioP2;P2;SDS_P1;SDS_P2;PMS_P1;PMS_P2;Temp;Humidity;BMP_temperature;BMP_pressure;BME280_temperature;BME280_humidity;BME280_pressure;Samples;Min_cycle;Max_cycle;Signal;HPM_P1;HPM_P2
2023/06/17 00:02:00;;;;;;;9.93;4.72;;;16.00;99.90;;;;;;5041182;28;20026;-64
2023/06/17 00:04:26;;;;;;;8.73;5.50;;;16.00;99.90;;;;;;5041367;28;20041;-64
2023/06/17 00:06:52;;;;;;;8.68;5.22;;;16.00;99.90;;;;;;5040679;28;20437;-65
2023/06/17 00:09:17;;;;;;;12.07;5.00;;;16.00;99.90;;;;;;5035040;28;20028;-65
2023/06/17 00:11:43;;;;;;;9.02;5.53;;;16.00;99.90;;;;;;5042528;28;20033;-64
2023/06/17 00:14:08;;;;;;;9.50;5.20;;;15.90;99.90;;;;;;5044786;28;20017;-64
2023/06/17 00:16:36;;;;;;;6.47;4.57;;;15.90;99.90;;;;;;5041712;28;20492;-65
2023/06/17 00:19:04;;;;;;;10.32;5.05;;;15.90;99.90;;;;;;5039688;28;20079;-61
2023/06/17 00:21:29;;;;;;;9.25;5.13;;;15.80;99.90;;;;;;5040820;28;20028;-66
2023/06/17 00:23:55;;;;;;;8.18;5.38;;;15.80;99.90;;;;;;5042623;28;20501;-64
2023/06/17 00:26:21;;;;;;;9.18;5.60;;;15.80;99.90;;;;;;5042098;28;20495;-63
2023/06/17 00:28:47;;;;;;;10.38;5.13;;;15.70;99.90;;;;;;5035074;28;20025;-64
2023/06/17 00:31:12;;;;;;;12.80;6.60;;;15.70;99.90;;;;;;5041993;28;20111;-65
2023/06/17 00:33:38;;;;;;;11.50;5.25;;;15.60;99.90;;;;;;5040526;28;20021;-64
2023/06/17 00:36:04;;;;;;;11.55;5.57;;;15.60;99.90;;;;;;5044715;28;20048;-64
2023/06/17 00:38:29;;;;;;;11.60;5.97;;;15.60;99.90;;;;;;5037208;28;20033;-64
2023/06/17 00:40:55;;;;;;;9.93;5.95;;;15.50;99.90;;;;;;5043402;28;20502;-65
2023/06/17 00:43:21;;;;;;;10.15;6.15;;;15.50;99.90;;;;;;5036840;28;20033;-64
2023/06/17 00:45:46;;;;;;;9.98;5.97;;;15.40;99.90;;;;;;5036321;28;20041;-64
2023/06/17 00:48:13;;;;;;;9.07;5.40;;;15.40;99.90;;;;;;5034744;28;20083;-63
2023/06/17 00:50:39;;;;;;;11.70;5.38;;;15.40;99.90;;;;;;5038003;28;20028;-64
2023/06/17 00:53:06;;;;;;;13.23;5.57;;;15.50;99.90;;;;;;5043086;28;20071;-63
2023/06/17 00:55:32;;;;;;;14.25;5.88;;;15.50;99.90;;;;;;5042915;28;20025;-64
2023/06/17 00:57:59;;;;;;;8.68;5.38;;;15.50;99.90;;;;;;5037922;28;20018;-66
2023/06/17 01:00:25;;;;;;;15.98;5.35;;;15.50;99.90;;;;;;5040273;28;20028;-63
2023/06/17 01:02:50;;;;;;;10.70;5.53;;;15.50;99.90;;;;;;5039512;28;20052;-64
2023/06/17 01:05:17;;;;;;;16.10;5.90;;;15.50;99.90;;;;;;5038978;28;20229;-64
2023/06/17 01:08:12;;;;;;;11.18;5.68;;;15.40;99.90;;;;;;5037622;28;20053;-65
2023/06/17 01:10:58;;;;;;;11.02;5.55;;;15.30;99.90;;;;;;5040207;28;20387;-65
2023/06/17 01:13:26;;;;;;;10.85;6.22;;;15.30;99.90;;;;;;5034847;28;20495;-65
2023/06/17 01:15:52;;;;;;;11.10;5.78;;;15.20;99.90;;;;;;5038054;28;20075;-64
2023/06/17 01:18:20;;;;;;;9.55;5.93;;;15.10;99.90;;;;;;5039595;28;20051;-63
2023/06/17 01:20:51;;;;;;;8.93;5.70;;;15.10;99.90;;;;;;5033816;28;20026;-65
2023/06/17 01:23:21;;;;;;;9.57;5.78;;;15.10;99.90;;;;;;5042869;28;20441;-65
2023/06/17 01:25:47;;;;;;;10.18;6.18;;;15.00;99.90;;;;;;5036664;28;20029;-63
2023/06/17 01:28:16;;;;;;;10.23;5.43;;;15.10;99.90;;;;;;5039272;28;20051;-63
2023/06/17 01:30:44;;;;;;;12.10;6.25;;;14.90;99.90;;;;;;5039414;28;20029;-63
2023/06/17 01:33:12;;;;;;;11.02;6.05;;;14.90;99.90;;;;;;5035006;28;20026;-61
2023/06/17 01:35:43;;;;;;;11.05;6.07;;;14.80;99.90;;;;;;5042081;28;20019;-63
2023/06/17 01:38:18;;;;;;;10.32;6.38;;;14.80;99.90;;;;;;5039524;28;20057;-62
2023/06/17 01:40:49;;;;;;;16.02;6.28;;;14.80;99.90;;;;;;5036301;28;20079;-65
2023/06/17 01:43:16;;;;;;;11.65;7.22;;;14.70;99.90;;;;;;5033577;28;20113;-63
2023/06/17 01:45:42;;;;;;;10.57;6.25;;;14.70;99.90;;;;;;5042008;28;20025;-63
2023/06/17 01:48:08;;;;;;;10.73;6.75;;;14.60;99.90;;;;;;5038747;28;20075;-64
2023/06/17 01:50:33;;;;;;;11.85;6.68;;;14.60;99.90;;;;;;5037055;28;20097;-62
2023/06/17 01:52:59;;;;;;;10.32;5.97;;;14.50;99.90;;;;;;5041949;28;20032;-63
2023/06/17 01:55:24;;;;;;;10.95;6.05;;;14.50;99.90;;;;;;5040622;28;20033;-64
2023/06/17 01:57:50;;;;;;;13.43;6.18;;;14.40;99.90;;;;;;5035637;28;20033;-60
2023/06/17 02:00:16;;;;;;;13.23;6.82;;;14.40;99.90;;;;;;5035372;28;20029;-62
2023/06/17 02:02:41;;;;;;;9.43;6.47;;;14.50;99.90;;;;;;5041822;28;20033;-63
2023/06/17 02:05:07;;;;;;;9.95;6.45;;;14.50;99.90;;;;;;5041207;28;20026;-62
2023/06/17 02:07:33;;;;;;;14.98;6.43;;;14.40;99.90;;;;;;5042120;28;20039;-63
2023/06/17 02:09:59;;;;;;;10.93;7.20;;;14.30;99.90;;;;;;5044996;28;20061;-61
2023/06/17 02:12:25;;;;;;;12.18;6.80;;;14.40;99.90;;;;;;5046106;28;21051;-64
2023/06/17 02:14:51;;;;;;;13.18;5.97;;;14.30;99.90;;;;;;5041161;28;20025;-61
2023/06/17 02:17:17;;;;;;;15.55;7.45;;;14.30;99.90;;;;;;5033951;28;20068;-64
2023/06/17 02:19:42;;;;;;;14.65;6.70;;;14.20;99.90;;;;;;5043689;28;20037;-65
2023/06/17 02:22:08;;;;;;;9.45;6.50;;;14.20;99.90;;;;;;5053034;28;20040;-65
2023/06/17 02:24:34;;;;;;;10.82;6.35;;;14.10;99.90;;;;;;5042009;28;20028;-63
2023/06/17 02:27:00;;;;;;;14.20;7.78;;;14.10;99.90;;;;;;5042683;28;20132;-63
2023/06/17 02:29:26;;;;;;;12.05;6.90;;;14.10;99.90;;;;;;5045124;28;20021;-63
2023/06/17 02:31:52;;;;;;;12.20;7.97;;;14.00;99.90;;;;;;5041255;28;20040;-62
2023/06/17 02:34:19;;;;;;;11.85;6.88;;;14.00;99.90;;;;;;5045280;28;20041;-63
2023/06/17 02:36:45;;;;;;;13.88;7.03;;;14.00;99.90;;;;;;5040361;28;20491;-63
2023/06/17 02:39:11;;;;;;;17.63;7.53;;;14.00;99.90;;;;;;5044894;28;20025;-63
2023/06/17 02:41:36;;;;;;;12.40;7.45;;;13.90;99.90;;;;;;5039348;28;20043;-59
2023/06/17 02:44:02;;;;;;;12.73;6.85;;;14.00;99.90;;;;;;5041338;28;20032;-63
2023/06/17 02:46:27;;;;;;;12.27;6.30;;;14.00;99.90;;;;;;5041052;28;20030;-64
2023/06/17 02:48:54;;;;;;;11.63;7.35;;;14.00;99.90;;;;;;5041846;28;20041;-63
2023/06/17 02:51:20;;;;;;;11.95;6.65;;;14.00;99.90;;;;;;5040461;28;20032;-64
2023/06/17 02:53:46;;;;;;;12.90;7.32;;;13.90;99.90;;;;;;5044527;28;20217;-63
2023/06/17 02:56:11;;;;;;;14.32;7.15;;;14.00;99.90;;;;;;5039635;28;20025;-61
2023/06/17 02:58:37;;;;;;;15.60;7.25;;;14.00;99.90;;;;;;5039721;28;20108;-63
2023/06/17 03:01:05;;;;;;;10.27;6.75;;;13.90;99.90;;;;;;5040687;28;20109;-63
2023/06/17 03:03:34;;;;;;;11.55;6.55;;;13.80;99.90;;;;;;5039674;28;20029;-64
2023/06/17 03:06:07;;;;;;;13.02;7.03;;;13.80;99.90;;;;;;5039593;28;20082;-63
2023/06/17 03:08:35;;;;;;;14.33;6.77;;;13.80;99.90;;;;;;5037017;28;20040;-65
2023/06/17 03:11:00;;;;;;;10.30;6.05;;;13.80;99.90;;;;;;5047623;28;20112;-63
2023/06/17 03:13:27;;;;;;;11.05;7.25;;;13.70;99.90;;;;;;5049529;28;20063;-64
2023/06/17 03:15:53;;;;;;;12.10;7.05;;;13.70;99.90;;;;;;5042043;28;20030;-63
2023/06/17 03:18:21;;;;;;;15.27;6.85;;;13.70;99.90;;;;;;5037433;28;20565;-63
2023/06/17 03:20:47;;;;;;;12.65;6.97;;;13.70;99.90;;;;;;5040134;28;20029;-63
2023/06/17 03:23:12;;;;;;;14.55;8.05;;;13.70;99.90;;;;;;5046385;28;20395;-64
2023/06/17 03:25:38;;;;;;;15.52;8.32;;;13.60;99.90;;;;;;5047451;28;20033;-63
2023/06/17 03:28:05;;;;;;;12.35;6.95;;;13.60;99.90;;;;;;5038776;28;20399;-63
2023/06/17 03:30:30;;;;;;;20.92;8.63;;;13.60;99.90;;;;;;5040776;28;20098;-63
2023/06/17 03:33:00;;;;;;;13.63;8.35;;;13.50;99.90;;;;;;5044342;28;20029;-64
2023/06/17 03:35:26;;;;;;;11.73;7.57;;;13.50;99.90;;;;;;5037896;28;20502;-62
2023/06/17 03:37:51;;;;;;;15.70;7.85;;;13.50;99.90;;;;;;5043145;28;20037;-64
2023/06/17 03:40:17;;;;;;;18.08;6.93;;;13.40;99.90;;;;;;5037698;28;20112;-64
2023/06/17 03:42:42;;;;;;;15.75;6.97;;;13.40;99.90;;;;;;5043306;28;20029;-63
2023/06/17 03:45:08;;;;;;;14.77;7.82;;;13.40;99.90;;;;;;5039394;28;20369;-64
2023/06/17 03:47:34;;;;;;;12.90;7.82;;;13.40;99.90;;;;;;5041505;28;20117;-64
2023/06/17 03:50:00;;;;;;;12.63;7.00;;;13.40;99.90;;;;;;5040538;28;20068;-64
2023/06/17 03:52:25;;;;;;;14.77;7.55;;;13.40;99.90;;;;;;5043194;28;20032;-63
2023/06/17 03:54:52;;;;;;;13.93;7.57;;;13.40;99.90;;;;;;5045779;28;20036;-64
2023/06/17 03:57:18;;;;;;;11.98;7.45;;;13.40;99.90;;;;;;5042617;28;20813;-63
2023/06/17 03:59:43;;;;;;;16.67;7.45;;;13.40;99.90;;;;;;5043928;28;20042;-64
2023/06/17 04:02:09;;;;;;;11.73;7.55;;;13.40;99.90;;;;;;5041675;28;20076;-64
2023/06/17 04:04:35;;;;;;;14.57;7.85;;;13.40;99.90;;;;;;5045211;28;20059;-66
2023/06/17 04:07:02;;;;;;;15.18;7.93;;;13.40;99.90;;;;;;5056506;28;20029;-66
2023/06/17 04:09:28;;;;;;;13.43;8.32;;;13.40;99.90;;;;;;5053448;28;20055;-64
2023/06/17 04:11:54;;;;;;;12.02;7.60;;;13.40;99.90;;;;;;5041556;28;20024;-65
2023/06/17 04:14:19;;;;;;;15.02;7.30;;;13.50;99.90;;;;;;5043436;28;20556;-64
2023/06/17 04:16:45;;;;;;;13.73;8.00;;;13.50;99.90;;;;;;5031631;28;20029;-65
2023/06/17 04:19:13;;;;;;;12.40;6.93;;;13.50;99.90;;;;;;5036706;28;20033;-59
2023/06/17 04:21:40;;;;;;;15.13;7.53;;;13.60;99.90;;;;;;5039241;28;20021;-64
2023/06/17 04:24:05;;;;;;;12.48;7.85;;;13.60;99.90;;;;;;5045366;28;20045;-64
2023/06/17 04:26:32;;;;;;;15.70;7.93;;;13.70;99.90;;;;;;5040379;28;20025;-64
2023/06/17 04:29:01;;;;;;;19.30;7.95;;;;;;;;;;5034115;28;20041;-63
2023/06/17 04:31:27;;;;;;;16.58;7.97;;;13.80;99.90;;;;;;5037493;28;20368;-64
2023/06/17 04:33:53;;;;;;;15.23;8.60;;;13.80;99.90;;;;;;5041984;28;20079;-65
2023/06/17 04:36:20;;;;;;;15.43;8.88;;;13.90;99.90;;;;;;5043908;28;20489;-65
2023/06/17 04:38:47;;;;;;;13.20;7.90;;;13.90;99.90;;;;;;5035028;28;20040;-64
2023/06/17 04:41:13;;;;;;;15.60;9.00;;;14.00;99.90;;;;;;5036783;28;20128;-64
2023/06/17 04:43:38;;;;;;;14.40;8.40;;;14.10;99.90;;;;;;5039342;28;20113;-58
2023/06/17 04:46:04;;;;;;;13.93;8.10;;;14.10;99.90;;;;;;5043275;28;20032;-63
2023/06/17 04:48:30;;;;;;;13.65;7.93;;;14.20;99.90;;;;;;5043203;28;20411;-64
2023/06/17 04:50:58;;;;;;;16.08;8.60;;;14.30;99.90;;;;;;5044279;28;20026;-64
2023/06/17 04:53:25;;;;;;;17.13;9.05;;;14.40;99.90;;;;;;5040656;28;20383;-64
2023/06/17 04:55:50;;;;;;;18.17;10.07;;;14.40;99.90;;;;;;5038035;28;20029;-64
2023/06/17 04:58:17;;;;;;;14.18;8.52;;;14.50;99.90;;;;;;5045128;28;20596;-64
2023/06/17 05:00:42;;;;;;;14.98;9.50;;;14.60;99.90;;;;;;5037817;28;20083;-64
2023/06/17 05:03:08;;;;;;;14.55;8.63;;;14.60;99.90;;;;;;5036190;28;20104;-66
2023/06/17 05:05:33;;;;;;;14.82;8.50;;;14.70;99.90;;;;;;5038374;28;20030;-63
2023/06/17 05:07:59;;;;;;;20.95;9.80;;;14.80;99.90;;;;;;5037808;28;20037;-64
2023/06/17 05:10:25;;;;;;;17.70;9.40;;;14.90;99.90;;;;;;5040665;28;20029;-64
2023/06/17 05:12:50;;;;;;;12.60;8.60;;;14.90;99.90;;;;;;5045611;28;20021;-64
2023/06/17 05:15:16;;;;;;;18.40;10.10;;;15.00;99.90;;;;;;5040225;28;20115;-65
2023/06/17 05:17:41;;;;;;;17.40;10.68;;;15.10;99.90;;;;;;5037899;28;20364;-66
2023/06/17 05:20:08;;;;;;;20.30;10.35;;;15.10;99.90;;;;;;5041503;28;20064;-65
2023/06/17 05:22:33;;;;;;;17.83;10.95;;;15.20;99.90;;;;;;5039724;28;20491;-64
2023/06/17 05:25:00;;;;;;;17.85;10.07;;;15.30;99.90;;;;;;5035105;28;20120;-65
2023/06/17 05:27:25;;;;;;;19.90;11.63;;;15.40;99.90;;;;;;5043560;28;20028;-63
2023/06/17 05:29:51;;;;;;;19.42;9.80;;;15.50;99.90;;;;;;5037980;28;20037;-64
2023/06/17 05:32:16;;;;;;;15.07;9.85;;;15.50;99.90;;;;;;5037442;28;20524;-64
2023/06/17 05:34:42;;;;;;;26.63;11.05;;;15.70;99.90;;;;;;5036278;28;20033;-63
2023/06/17 05:37:07;;;;;;;17.55;9.90;;;15.80;99.90;;;;;;5044470;28;20397;-64
2023/06/17 05:39:33;;;;;;;19.67;10.68;;;15.90;99.90;;;;;;5043496;28;20506;-64
2023/06/17 05:41:58;;;;;;;18.25;10.65;;;16.00;99.90;;;;;;5045177;28;20029;-66
2023/06/17 05:44:24;;;;;;;17.02;9.88;;;16.00;99.90;;;;;;5043119;28;20450;-63
2023/06/17 05:46:49;;;;;;;18.42;10.02;;;16.10;99.90;;;;;;5040383;28;20050;-66
2023/06/17 05:49:15;;;;;;;16.73;10.02;;;16.10;99.90;;;;;;5042912;28;20048;-62
2023/06/17 05:51:41;;;;;;;18.23;10.40;;;16.20;99.90;;;;;;5037611;28;20033;-60
2023/06/17 05:54:07;;;;;;;17.58;10.63;;;16.30;99.90;;;;;;5047775;28;20052;-64
2023/06/17 05:56:32;;;;;;;17.48;9.85;;;16.40;99.90;;;;;;5039590;28;20041;-64
2023/06/17 05:58:58;;;;;;;17.38;10.13;;;16.50;99.90;;;;;;5039079;28;20021;-64
2023/06/17 06:01:23;;;;;;;19.67;10.68;;;16.60;99.90;;;;;;5043452;28;20024;-64
2023/06/17 06:03:49;;;;;;;17.05;9.40;;;16.70;99.90;;;;;;5037839;28;20415;-66
2023/06/17 06:06:14;;;;;;;18.02;10.50;;;16.80;99.90;;;;;;5046379;28;20063;-64
2023/06/17 06:08:40;;;;;;;17.35;10.18;;;16.90;99.90;;;;;;5041420;28;20029;-62
2023/06/17 06:11:05;;;;;;;16.27;9.95;;;16.90;99.90;;;;;;5044299;28;20040;-64
2023/06/17 06:13:31;;;;;;;20.63;9.95;;;17.00;99.90;;;;;;5042501;28;20039;-64
2023/06/17 06:15:57;;;;;;;18.25;9.52;;;17.10;99.90;;;;;;5041398;28;20033;-63
2023/06/17 06:18:23;;;;;;;15.73;8.50;;;17.20;99.90;;;;;;5037655;28;20047;-62
2023/06/17 06:20:48;;;;;;;16.98;8.93;;;17.30;99.90;;;;;;5036665;28;20049;-65
2023/06/17 06:23:14;;;;;;;18.33;8.65;;;17.40;99.90;;;;;;5044896;28;20033;-62
2023/06/17 06:25:40;;;;;;;13.98;9.10;;;17.50;99.90;;;;;;5045791;28;20483;-64
2023/06/17 06:28:05;;;;;;;15.88;8.90;;;17.60;99.90;;;;;;5036654;28;20025;-60
2023/06/17 06:30:31;;;;;;;14.57;7.97;;;17.60;99.90;;;;;;5039871;28;20083;-64
2023/06/17 06:32:58;;;;;;;17.00;7.50;;;17.70;99.90;;;;;;5041861;28;20124;-65
2023/06/17 06:35:23;;;;;;;21.80;9.77;;;17.80;99.90;;;;;;5040910;28;20387;-61
2023/06/17 06:37:49;;;;;;;19.70;7.97;;;17.80;99.90;;;;;;5039115;28;20025;-64
2023/06/17 06:40:15;;;;;;;14.93;9.77;;;17.90;99.90;;;;;;5041607;28;20424;-65
2023/06/17 06:42:41;;;;;;;19.42;9.57;;;18.00;99.90;;;;;;5043636;28;20057;-65
2023/06/17 06:45:07;;;;;;;18.17;11.38;;;18.10;99.90;;;;;;5034650;28;20447;-63
2023/06/17 06:47:32;;;;;;;15.75;9.45;;;18.20;99.90;;;;;;5040010;28;20036;-64
2023/06/17 06:49:58;;;;;;;16.17;8.95;;;18.20;99.90;;;;;;5048771;28;20415;-63
2023/06/17 06:52:23;;;;;;;20.92;10.30;;;18.30;99.90;;;;;;5039711;28;20395;-62
2023/06/17 06:54:49;;;;;;;15.60;9.30;;;18.30;99.90;;;;;;5035928;28;20049;-65
2023/06/17 06:57:15;;;;;;;16.58;9.15;;;18.40;99.90;;;;;;5045743;28;20021;-64
2023/06/17 06:59:40;;;;;;;20.25;10.82;;;18.50;99.90;;;;;;5051506;28;20021;-66
2023/06/17 07:02:06;;;;;;;21.92;10.18;;;18.60;99.90;;;;;;5041431;28;20037;-65
2023/06/17 07:04:31;;;;;;;15.27;9.52;;;18.70;99.90;;;;;;5042221;28;20029;-64
2023/06/17 07:06:57;;;;;;;16.90;9.48;;;18.70;99.90;;;;;;5040974;28;20072;-64
2023/06/17 07:09:22;;;;;;;23.67;10.85;;;18.80;99.90;;;;;;5037274;28;20468;-65
2023/06/17 07:11:48;;;;;;;22.48;10.90;;;18.90;99.90;;;;;;5039819;28;20120;-64
2023/06/17 07:14:13;;;;;;;20.95;9.30;;;19.00;99.90;;;;;;5035538;28;20479;-61
2023/06/17 07:16:39;;;;;;;23.25;8.95;;;19.00;99.90;;;;;;5037654;28;20385;-65
2023/06/17 07:19:05;;;;;;;18.40;8.80;;;19.10;99.90;;;;;;5039746;28;20052;-63
2023/06/17 07:21:31;;;;;;;23.27;12.00;;;19.20;99.90;;;;;;5042911;28;20116;-66
2023/06/17 07:23:57;;;;;;;21.10;10.15;;;19.40;99.90;;;;;;5041469;28;20040;-64
2023/06/17 07:26:22;;;;;;;16.40;9.75;;;19.50;99.90;;;;;;5030767;28;20041;-65
2023/06/17 07:28:48;;;;;;;16.85;9.90;;;19.60;99.90;;;;;;5041051;28;20032;-64
2023/06/17 07:31:13;;;;;;;20.73;9.45;;;19.60;99.90;;;;;;5030213;28;20025;-63
2023/06/17 07:33:42;;;;;;;19.13;10.90;;;19.70;99.90;;;;;;5040220;28;20138;-65
2023/06/17 07:36:07;;;;;;;18.98;10.05;;;19.80;99.90;;;;;;5039676;28;20037;-65
2023/06/17 07:38:33;;;;;;;18.38;9.43;;;19.80;99.90;;;;;;5041244;28;20037;-65
2023/06/17 07:41:02;;;;;;;14.50;9.13;;;19.90;99.90;;;;;;5039998;28;20042;-66
2023/06/17 07:43:27;;;;;;;22.42;9.73;;;20.00;99.90;;;;;;5036666;28;20495;-66
2023/06/17 07:45:53;;;;;;;17.10;8.93;;;20.10;99.90;;;;;;5035005;28;20048;-65
2023/06/17 07:48:18;;;;;;;17.17;9.85;;;20.20;99.90;;;;;;5040632;28;20047;-65
2023/06/17 07:50:44;;;;;;;21.50;8.93;;;20.30;99.90;;;;;;5037959;28;20021;-65
2023/06/17 07:53:10;;;;;;;17.55;9.07;;;20.30;99.90;;;;;;5023347;28;20113;-64
2023/06/17 07:55:36;;;;;;;16.02;8.50;;;20.40;99.90;;;;;;5027179;28;20399;-66
2023/06/17 07:58:02;;;;;;;16.08;8.57;;;20.60;99.90;;;;;;5041381;28;20033;-66
2023/06/17 08:00:27;;;;;;;15.32;8.43;;;20.60;99.90;;;;;;5041553;28;20399;-65
2023/06/17 08:02:55;;;;;;;17.83;10.13;;;20.70;99.90;;;;;;5038873;28;20451;-64
2023/06/17 08:05:21;;;;;;;16.88;9.95;;;20.90;99.90;;;;;;5033621;28;20021;-65
2023/06/17 08:07:46;;;;;;;15.80;8.48;;;21.00;99.90;;;;;;5033589;28;20079;-66
2023/06/17 08:10:12;;;;;;;15.32;8.10;;;21.10;99.90;;;;;;5034822;28;20033;-65
2023/06/17 08:12:38;;;;;;;13.70;7.43;;;21.10;99.90;;;;;;5038812;28;20053;-64
2023/06/17 08:15:03;;;;;;;12.43;8.10;;;21.10;99.90;;;;;;5032272;28;20029;-66
2023/06/17 08:17:29;;;;;;;13.80;6.85;;;21.20;99.90;;;;;;5040616;28;20044;-66
2023/06/17 08:19:55;;;;;;;13.45;6.80;;;21.40;99.90;;;;;;5038773;28;20030;-66
2023/06/17 08:22:21;;;;;;;18.55;7.88;;;21.50;99.90;;;;;;5036827;28;20037;-65
2023/06/17 08:24:47;;;;;;;10.70;5.70;;;21.60;99.90;;;;;;5043383;28;20045;-65
2023/06/17 08:27:13;;;;;;;10.57;7.32;;;21.60;99.90;;;;;;5046780;28;20029;-64
2023/06/17 08:29:38;;;;;;;10.27;5.93;;;21.70;99.90;;;;;;5044154;28;20036;-65
2023/06/17 08:32:04;;;;;;;10.45;6.40;;;21.80;99.90;;;;;;5044120;28;20025;-65
2023/06/17 08:34:31;;;;;;;12.23;7.10;;;22.00;99.90;;;;;;5037973;28;20021;-65
2023/06/17 08:37:03;;;;;;;12.48;6.28;;;22.00;99.90;;;;;;5039412;28;20017;-65
2023/06/17 08:39:29;;;;;;;12.90;5.93;;;22.10;99.90;;;;;;5045222;28;20070;-65
2023/06/17 08:41:56;;;;;;;11.00;5.78;;;22.30;99.90;;;;;;5019883;28;20057;-65
2023/06/17 08:44:24;;;;;;;8.73;5.72;;;22.30;99.90;;;;;;5040566;28;20479;-65
2023/06/17 08:46:51;;;;;;;14.52;5.55;;;22.30;99.90;;;;;;5038670;28;20414;-64
2023/06/17 08:49:18;;;;;;;7.85;5.00;;;22.50;99.90;;;;;;5041399;28;20040;-65
2023/06/17 08:51:48;;;;;;;7.68;5.20;;;22.60;99.90;;;;;;5037958;28;20021;-64
2023/06/17 08:54:13;;;;;;;8.55;5.63;;;22.70;99.90;;;;;;5035613;28;20395;-61
2023/06/17 08:56:40;;;;;;;10.18;5.57;;;22.90;99.90;;;;;;5037284;28;20022;-66
2023/06/17 08:59:06;;;;;;;9.57;5.47;;;23.10;99.90;;;;;;5035516;28;20030;-64
2023/06/17 09:01:32;;;;;;;12.73;6.15;;;23.20;99.90;;;;;;5036572;28;20108;-65
2023/06/17 09:03:59;;;;;;;10.25;5.50;;;23.30;99.40;;;;;;5039296;28;20483;-64
2023/06/17 09:06:27;;;;;;;9.75;5.50;;;23.40;99.20;;;;;;5036889;28;20041;-65
2023/06/17 09:08:57;;;;;;;7.50;4.88;;;23.40;98.90;;;;;;5039687;28;20497;-65
2023/06/17 09:11:27;;;;;;;9.43;5.68;;;23.40;99.40;;;;;;5036548;28;20561;-65
2023/06/17 09:13:54;;;;;;;7.70;4.68;;;23.50;98.80;;;;;;5032988;28;20022;-65
2023/06/17 09:16:31;;;;;;;9.23;4.72;;;23.60;97.80;;;;;;5035012;28;20403;-66
2023/06/17 09:18:58;;;;;;;14.25;5.05;;;23.70;97.70;;;;;;5036706;28;20029;-64
2023/06/17 09:21:25;;;;;;;11.43;5.18;;;23.70;97.80;;;;;;5036206;28;20096;-65
2023/06/17 09:24:03;;;;;;;8.63;5.15;;;23.90;96.60;;;;;;5044034;28;20041;-65
2023/06/17 09:26:33;;;;;;;10.52;5.28;;;23.90;96.70;;;;;;5033367;28;20035;-67
2023/06/17 09:29:04;;;;;;;8.05;5.07;;;24.00;96.90;;;;;;5051752;28;20029;-65
2023/06/17 09:31:30;;;;;;;7.90;5.00;;;24.00;95.80;;;;;;5040136;28;20032;-64
2023/06/17 09:33:56;;;;;;;11.32;5.47;;;24.10;95.90;;;;;;5045997;28;20037;-64
2023/06/17 09:36:23;;;;;;;8.18;5.93;;;24.10;95.90;;;;;;5042314;28;20108;-65
2023/06/17 09:38:51;;;;;;;6.47;5.07;;;24.20;96.20;;;;;;5041670;28;20446;-64
2023/06/17 09:41:18;;;;;;;14.85;5.28;;;24.30;95.40;;;;;;5033566;28;20029;-64
2023/06/17 09:43:54;;;;;;;9.65;4.93;;;24.40;95.10;;;;;;5032350;28;20049;-64
2023/06/17 09:46:35;;;;;;;6.55;4.95;;;24.50;94.40;;;;;;5039607;28;20116;-64
2023/06/17 09:49:01;;;;;;;8.02;5.50;;;24.70;95.20;;;;;;5040524;28;20034;-64
2023/06/17 09:51:37;;;;;;;6.63;5.05;;;24.70;93.90;;;;;;5040779;28;20108;-64
2023/06/17 09:54:04;;;;;;;5.82;3.95;;;24.80;93.40;;;;;;5036014;28;20032;-65
2023/06/17 09:56:31;;;;;;;11.00;5.47;;;24.90;94.60;;;;;;5033182;28;20022;-65
2023/06/17 09:58:57;;;;;;;7.65;5.13;;;25.20;94.20;;;;;;5033657;28;20493;-64
2023/06/17 10:01:28;;;;;;;8.48;4.57;;;25.30;93.50;;;;;;5038122;28;20029;-64
2023/06/17 10:03:54;;;;;;;7.53;4.70;;;25.40;92.20;;;;;;5038782;28;20411;-64
2023/06/17 10:06:20;;;;;;;7.93;4.68;;;25.60;92.60;;;;;;5045383;28;20037;-65
2023/06/17 10:08:52;;;;;;;21.63;5.45;;;25.50;91.90;;;;;;5037172;28;20034;-65
2023/06/17 10:11:19;;;;;;;16.85;6.20;;;25.80;91.60;;;;;;5035317;28;20120;-66
2023/06/17 10:13:53;;;;;;;6.38;4.53;;;25.90;90.50;;;;;;5032496;28;20107;-64
2023/06/17 10:16:21;;;;;;;8.23;5.00;;;26.10;91.60;;;;;;5055465;28;20463;-66
2023/06/17 10:18:51;;;;;;;7.25;4.63;;;26.10;90.00;;;;;;5037583;28;20275;-66
2023/06/17 10:21:18;;;;;;;11.23;4.88;;;26.40;89.70;;;;;;5039347;28;20025;-66
2023/06/17 10:23:45;;;;;;;7.30;5.30;;;26.50;87.00;;;;;;5037540;28;20048;-65
2023/06/17 10:26:12;;;;;;;6.30;4.30;;;26.40;85.70;;;;;;5041672;28;20025;-65
2023/06/17 10:29:10;;;;;;;9.57;4.75;;;26.50;85.40;;;;;;5035123;28;20060;-65
2023/06/17 10:31:43;;;;;;;7.05;3.97;;;26.50;83.50;;;;;;5038069;28;20068;-63
2023/06/17 10:34:14;;;;;;;13.70;5.07;;;26.90;83.50;;;;;;5040348;28;20041;-65
2023/06/17 10:36:40;;;;;;;7.68;4.97;;;27.00;82.70;;;;;;5038083;28;20022;-65
2023/06/17 10:39:10;;;;;;;12.13;5.38;;;27.00;80.80;;;;;;5040814;28;20106;-66
2023/06/17 10:41:42;;;;;;;8.32;4.53;;;27.00;83.20;;;;;;5038648;28;20029;-66
2023/06/17 10:44:20;;;;;;;5.55;3.78;;;27.00;80.10;;;;;;5041678;28;20094;-65
2023/06/17 10:46:49;;;;;;;8.07;4.35;;;27.20;77.60;;;;;;5042182;28;20033;-66
2023/06/17 10:49:14;;;;;;;9.77;4.65;;;27.20;78.60;;;;;;5046095;28;20033;-65
2023/06/17 10:51:47;;;;;;;8.18;4.28;;;27.00;77.40;;;;;;5042819;28;20387;-66
2023/06/17 10:54:13;;;;;;;5.53;3.80;;;27.00;77.50;;;;;;5047100;28;20017;-65
2023/06/17 10:56:52;;;;;;;6.63;3.92;;;27.20;71.20;;;;;;5023959;28;20394;-65
2023/06/17 10:59:28;;;;;;;6.68;4.05;;;27.20;72.10;;;;;;5034631;28;20029;-65
2023/06/17 11:02:06;;;;;;;10.18;4.32;;;27.20;74.00;;;;;;5039471;28;20091;-65
2023/06/17 11:04:33;;;;;;;15.27;4.95;;;27.40;73.30;;;;;;5039365;28;20505;-65
2023/06/17 11:07:00;;;;;;;5.38;4.05;;;27.50;72.60;;;;;;5032726;28;20029;-64
2023/06/17 11:09:27;;;;;;;6.75;3.80;;;27.40;72.10;;;;;;5035599;28;20033;-65
2023/06/17 11:11:56;;;;;;;5.93;3.85;;;27.30;70.60;;;;;;5040246;28;20033;-66
2023/06/17 11:14:24;;;;;;;6.53;4.65;;;27.50;71.60;;;;;;5045272;28;20032;-65
2023/06/17 11:16:50;;;;;;;8.32;4.72;;;27.90;71.20;;;;;;5039888;28;20032;-65
2023/06/17 11:19:15;;;;;;;6.68;4.35;;;28.10;71.40;;;;;;5047581;28;20037;-65
2023/06/17 11:21:41;;;;;;;8.13;3.72;;;28.30;70.10;;;;;;5037362;28;20033;-66
2023/06/17 11:24:09;;;;;;;7.90;3.92;;;28.30;70.50;;;;;;5044422;28;20124;-65
2023/06/17 11:26:35;;;;;;;8.93;4.82;;;28.30;70.30;;;;;;5040173;28;20099;-65
2023/06/17 11:29:01;;;;;;;8.50;4.68;;;28.20;74.10;;;;;;5039670;28;20030;-66
2023/06/17 11:31:28;;;;;;;6.30;4.30;;;28.30;71.10;;;;;;5050340;28;20060;-66
2023/06/17 11:33:58;;;;;;;11.73;4.35;;;28.20;66.30;;;;;;5040987;28;20551;-64
2023/06/17 11:36:25;;;;;;;10.13;4.40;;;28.00;67.70;;;;;;5042986;28;20025;-65
2023/06/17 11:38:53;;;;;;;6.07;4.03;;;28.00;68.00;;;;;;5041040;28;20025;-66
2023/06/17 11:41:19;;;;;;;10.07;4.57;;;28.10;66.50;;;;;;5036960;28;20029;-65
2023/06/17 11:43:45;;;;;;;6.20;3.95;;;28.30;65.30;;;;;;5035708;28;20030;-65
2023/06/17 11:46:11;;;;;;;11.00;4.63;;;28.50;65.20;;;;;;5036779;28;20468;-66
2023/06/17 11:48:36;;;;;;;7.60;3.72;;;28.80;63.60;;;;;;5039972;28;20059;-66
2023/06/17 11:51:02;;;;;;;5.65;3.90;;;28.90;62.60;;;;;;5037624;28;20049;-65
2023/06/17 11:53:37;;;;;;;7.10;4.15;;;28.70;61.40;;;;;;5041805;28;20048;-65
2023/06/17 11:56:06;;;;;;;6.97;3.95;;;28.60;62.00;;;;;;5046295;28;20491;-63
2023/06/17 11:58:33;;;;;;;6.43;4.30;;;28.70;63.60;;;;;;5043278;28;20119;-65
2023/06/17 12:01:00;;;;;;;10.40;4.53;;;28.30;69.50;;;;;;5035591;28;20042;-67
2023/06/17 12:03:27;;;;;;;6.07;3.65;;;28.80;64.10;;;;;;5042281;28;20029;-66
2023/06/17 12:05:53;;;;;;;7.22;3.75;;;29.10;60.80;;;;;;5037307;28;20037;-63
2023/06/17 12:08:18;;;;;;;9.00;4.00;;;29.20;59.60;;;;;;5045008;28;20029;-65
2023/06/17 12:10:44;;;;;;;7.10;4.13;;;28.90;58.40;;;;;;5034207;28;20041;-65
2023/06/17 12:13:13;;;;;;;5.78;3.95;;;28.80;59.40;;;;;;5038798;28;20502;-65
2023/06/17 12:15:39;;;;;;;7.55;3.40;;;28.80;59.90;;;;;;5041177;28;20509;-65
2023/06/17 12:18:11;;;;;;;4.10;2.78;;;28.80;58.20;;;;;;5041614;28;20029;-64
2023/06/17 12:20:38;;;;;;;7.32;4.13;;;29.20;57.70;;;;;;5043766;28;20277;-65
2023/06/17 12:23:03;;;;;;;4.65;3.47;;;29.20;58.70;;;;;;5035749;28;20033;-64
2023/06/17 12:25:33;;;;;;;6.28;3.50;;;29.20;58.00;;;;;;5040450;28;20017;-65
2023/06/17 12:27:58;;;;;;;5.43;3.60;;;29.40;59.80;;;;;;5050881;28;20028;-65
2023/06/17 12:30:24;;;;;;;8.55;4.35;;;29.90;58.20;;;;;;5043696;28;20032;-66
2023/06/17 12:32:50;;;;;;;7.60;3.65;;;30.00;56.90;;;;;;5036439;28;20025;-65
2023/06/17 12:35:17;;;;;;;4.60;3.60;;;30.00;57.40;;;;;;5046140;28;20436;-64
2023/06/17 12:37:43;;;;;;;16.42;4.88;;;30.30;62.60;;;;;;5035645;28;20033;-65